createdAt,value
2019-04-11T00:00:31.272Z,5.00
2019-04-11T00:03:00.842Z,4.77
2019-04-11T00:05:30.725Z,4.80
2019-04-11T00:08:00.216Z,4.70
2019-04-11T00:10:31.172Z,5.57
2019-04-11T00:13:14.261Z,5.40
2019-04-11T00:15:34.827Z,4.80
2019-04-11T00:18:04.722Z,4.90
2019-04-11T00:20:33.894Z,5.30
2019-04-11T00:23:02.987Z,4.57
2019-04-11T00:25:32.091Z,4.80
2019-04-11T00:28:01.558Z,4.30
2019-04-11T00:30:30.860Z,4.40
2019-04-11T00:33:00.216Z,4.57
2019-04-11T00:35:29.399Z,4.47
2019-04-11T00:37:59.306Z,4.10
2019-04-11T00:40:29.090Z,4.53
2019-04-11T00:42:58.908Z,3.83
2019-04-11T00:45:28.268Z,3.50
2019-04-11T00:47:57.548Z,3.97
2019-04-11T00:50:27.397Z,3.50
2019-04-11T00:52:57.974Z,3.80
2019-04-11T00:55:27.512Z,4.10
2019-04-11T00:57:57.089Z,3.57
2019-04-11T01:00:27.073Z,3.23
2019-04-11T01:02:56.416Z,3.70
2019-04-11T01:05:25.711Z,4.10
2019-04-11T01:07:55.441Z,3.67
2019-04-11T01:10:26.555Z,3.67
2019-04-11T01:12:56.661Z,3.57
2019-04-11T01:15:27.118Z,3.40
2019-04-11T01:17:56.375Z,3.37
2019-04-11T01:20:25.498Z,3.70
2019-04-11T01:22:54.604Z,3.57
2019-04-11T01:25:24.397Z,3.20
2019-04-11T01:27:54.290Z,3.10
2019-04-11T01:30:29.100Z,3.17
2019-04-11T01:32:59.511Z,3.13
2019-04-11T01:35:28.986Z,3.60
2019-04-11T01:37:58.089Z,3.40
2019-04-11T01:40:27.217Z,3.20
2019-04-11T01:42:57.588Z,2.47
2019-04-11T01:45:27.568Z,2.93
2019-04-11T01:48:17.486Z,3.40
2019-04-11T01:50:47.286Z,3.30
2019-04-11T01:53:17.173Z,3.07
2019-04-11T01:55:46.497Z,3.17
2019-04-11T01:58:16.316Z,3.23
2019-04-11T02:00:54.683Z,3.60
2019-04-11T02:03:33.106Z,3.10
2019-04-11T02:06:02.349Z,3.33
2019-04-11T02:08:31.529Z,2.90
2019-04-11T02:11:01.361Z,3.40
2019-04-11T02:13:30.617Z,3.00
2019-04-11T02:16:01.429Z,2.77
2019-04-11T02:18:31.589Z,3.07
2019-04-11T02:21:01.065Z,3.27
2019-04-11T02:23:41.379Z,3.00
2019-04-11T02:26:20.938Z,3.50
2019-04-11T02:28:50.141Z,3.40
2019-04-11T02:31:20.394Z,4.00
2019-04-11T02:33:51.094Z,3.47
2019-04-11T02:36:21.177Z,2.97
2019-04-11T02:38:55.214Z,3.40
2019-04-11T02:41:21.555Z,3.20
2019-04-11T02:43:51.117Z,3.53
2019-04-11T02:46:31.929Z,3.20
2019-04-11T02:48:52.202Z,3.73
2019-04-11T02:51:22.720Z,3.00
2019-04-11T02:53:54.135Z,3.47
2019-04-11T02:56:23.861Z,3.37
2019-04-11T02:58:54.558Z,3.57
2019-04-11T03:01:24.265Z,3.30
2019-04-11T03:03:54.219Z,3.20
2019-04-11T03:06:25.849Z,2.87
2019-04-11T03:08:55.690Z,3.17
2019-04-11T03:11:27.426Z,3.07
2019-04-11T03:13:58.343Z,3.00
2019-04-11T03:16:42.699Z,3.53
2019-04-11T03:19:18.419Z,3.30
2019-04-11T03:21:36.684Z,3.40
2019-04-11T03:24:02.926Z,3.23
2019-04-11T03:26:33.607Z,3.53
2019-04-11T03:29:04.733Z,3.30
2019-04-11T03:32:14.495Z,4.83
2019-04-11T03:35:02.933Z,3.80
2019-04-11T03:37:13.621Z,3.37
2019-04-11T03:39:27.695Z,3.40
2019-04-11T03:41:57.669Z,3.43
2019-04-11T03:44:16.680Z,4.10
2019-04-11T03:46:55.209Z,3.33
2019-04-11T03:49:24.990Z,2.90
2019-04-11T03:51:45.419Z,3.30
2019-04-11T03:54:15.717Z,3.47
2019-04-11T03:56:45.705Z,3.23
2019-04-11T03:59:16.743Z,3.20
2019-04-11T04:01:47.145Z,3.20
2019-04-11T04:04:19.452Z,3.50
2019-04-11T04:06:49.785Z,3.37
2019-04-11T04:09:20.668Z,2.83
2019-04-11T04:11:51.233Z,3.47
2019-04-11T04:14:36.918Z,3.13
2019-04-11T04:17:23.679Z,3.80
2019-04-11T04:20:26.952Z,3.13
2019-04-11T04:23:05.253Z,3.90
2019-04-11T04:25:36.755Z,3.90
2019-04-11T04:28:07.557Z,3.60
2019-04-11T04:30:38.450Z,4.10
2019-04-11T04:33:10.100Z,3.50
2019-04-11T04:35:40.293Z,3.60
2019-04-11T04:38:11.295Z,3.57
2019-04-11T04:40:55.758Z,3.40
2019-04-11T04:43:12.217Z,3.80
2019-04-11T04:45:59.797Z,3.73
2019-04-11T04:48:15.925Z,3.43
2019-04-11T04:50:44.643Z,3.77
2019-04-11T04:53:13.829Z,3.90
2019-04-11T04:55:43.586Z,4.00
2019-04-11T04:58:13.457Z,4.07
2019-04-11T05:00:43.673Z,4.60
2019-04-11T05:03:13.531Z,3.67
2019-04-11T05:05:44.294Z,4.07
2019-04-11T05:08:14.502Z,4.23
2019-04-11T05:10:44.937Z,4.00
2019-04-11T05:13:15.577Z,4.17
2019-04-11T05:15:45.397Z,4.07
2019-04-11T05:18:15.609Z,3.70
2019-04-11T05:20:46.329Z,3.90
2019-04-11T05:23:16.983Z,4.43
2019-04-11T05:25:46.628Z,3.93
2019-04-11T05:28:16.114Z,4.40
2019-04-11T05:30:45.218Z,4.33
2019-04-11T05:33:14.648Z,4.10
2019-04-11T05:35:43.816Z,4.80
2019-04-11T05:38:13.016Z,4.30
2019-04-11T05:40:42.104Z,4.83
2019-04-11T05:43:11.441Z,4.40
2019-04-11T05:45:40.754Z,4.77
2019-04-11T05:48:15.624Z,4.50
2019-04-11T05:50:48.371Z,5.63
2019-04-11T05:53:15.856Z,4.77
2019-04-11T05:55:47.455Z,4.90
2019-04-11T05:58:17.694Z,4.70
2019-04-11T06:01:03.621Z,5.53
2019-04-11T06:03:32.732Z,5.90
2019-04-11T06:06:24.659Z,5.63
2019-04-11T06:08:58.552Z,6.47
2019-04-11T06:11:39.126Z,5.83
2019-04-11T06:14:22.866Z,6.00
2019-04-11T06:16:56.160Z,5.50
2019-04-11T06:19:43.912Z,5.37
2019-04-11T06:22:13.036Z,5.47
2019-04-11T06:25:16.545Z,5.47
2019-04-11T06:28:02.598Z,5.87
2019-04-11T06:31:07.647Z,5.93
2019-04-11T06:33:40.717Z,7.73
2019-04-11T06:36:18.607Z,6.60
2019-04-11T06:39:07.178Z,6.37
2019-04-11T06:41:54.916Z,6.17
2019-04-11T06:44:48.076Z,6.33
2019-04-11T06:47:37.724Z,7.10
2019-04-11T06:50:13.110Z,6.00
2019-04-11T06:52:43.285Z,7.37
2019-04-11T06:55:30.811Z,6.50
2019-04-11T06:58:04.847Z,6.13
2019-04-11T07:00:34.336Z,6.30
2019-04-11T07:03:03.752Z,6.47
2019-04-11T07:05:35.157Z,5.80
2019-04-11T07:08:05.422Z,6.80
2019-04-11T07:10:49.040Z,5.87
2019-04-11T07:13:24.548Z,6.67
2019-04-11T07:15:56.904Z,6.30
2019-04-11T07:18:44.245Z,6.40
2019-04-11T07:21:13.504Z,7.53
2019-04-11T07:24:00.949Z,8.50
2019-04-11T07:26:45.823Z,7.07
2019-04-11T07:29:33.709Z,7.10
2019-04-11T07:32:09.466Z,6.70
2019-04-11T07:34:56.743Z,7.30
2019-04-11T07:37:28.651Z,7.50
2019-04-11T07:40:26.854Z,6.30
2019-04-11T07:43:22.616Z,6.63
2019-04-11T07:46:10.977Z,7.17
2019-04-11T07:48:42.506Z,6.43
2019-04-11T07:51:25.980Z,6.67
2019-04-11T07:53:56.761Z,5.00
2019-04-11T07:56:51.030Z,4.93
2019-04-11T07:59:27.955Z,5.67
2019-04-11T08:02:16.297Z,5.00
2019-04-11T08:05:16.804Z,5.53
2019-04-11T08:08:11.250Z,4.83
2019-04-11T08:11:06.730Z,4.80
2019-04-11T08:13:42.931Z,4.20
2019-04-11T08:16:35.093Z,4.73
2019-04-11T08:19:23.070Z,5.50
2019-04-11T08:22:08.427Z,5.07
2019-04-11T08:24:44.893Z,4.20
2019-04-11T08:27:28.485Z,4.30
2019-04-11T08:29:58.505Z,4.50
2019-04-11T08:32:49.870Z,4.30
2019-04-11T08:35:53.453Z,4.60
2019-04-11T08:38:26.697Z,4.70
2019-04-11T08:41:07.594Z,4.93
2019-04-11T08:43:37.438Z,4.87
2019-04-11T08:46:15.376Z,4.20
2019-04-11T08:48:48.901Z,4.10
2019-04-11T08:51:19.188Z,4.50
2019-04-11T08:54:07.664Z,4.20
2019-04-11T08:56:49.477Z,3.90
2019-04-11T08:59:47.136Z,3.90
2019-04-11T09:02:39.172Z,3.43
2019-04-11T09:05:33.383Z,3.60
2019-04-11T09:08:25.197Z,3.67
2019-04-11T09:11:06.700Z,3.33
2019-04-11T09:13:47.293Z,3.00
2019-04-11T09:16:54.162Z,3.10
2019-04-11T09:19:54.989Z,2.93
2019-04-11T09:22:50.589Z,3.77
2019-04-11T09:25:37.635Z,3.30
2019-04-11T09:28:17.945Z,3.47
2019-04-11T09:31:15.687Z,2.67
2019-04-11T09:34:03.986Z,3.23
2019-04-11T09:36:51.330Z,3.13
2019-04-11T09:39:35.061Z,3.30
2019-04-11T09:42:23.128Z,2.97
2019-04-11T09:45:14.632Z,3.17
2019-04-11T09:48:15.320Z,3.03
2019-04-11T09:51:00.813Z,2.73
2019-04-11T09:53:30.368Z,3.00
2019-04-11T09:56:22.836Z,2.60
2019-04-11T09:58:53.176Z,2.57
2019-04-11T10:01:40.797Z,3.00
2019-04-11T10:04:10.840Z,2.80
2019-04-11T10:06:59.103Z,2.70
2019-04-11T10:09:39.993Z,3.30
2019-04-11T10:12:27.641Z,2.50
2019-04-11T10:14:57.728Z,3.07
2019-04-11T10:17:46.367Z,3.50
2019-04-11T10:20:18.232Z,2.80
2019-04-11T10:23:08.241Z,3.07
2019-04-11T10:25:47.609Z,3.20
2019-04-11T10:28:42.412Z,3.10
2019-04-11T10:31:14.571Z,3.03
2019-04-11T10:34:13.200Z,2.70
2019-04-11T10:37:17.885Z,2.90
2019-04-11T10:40:04.374Z,2.37
2019-04-11T10:42:33.455Z,2.60
2019-04-11T10:45:30.985Z,2.90
2019-04-11T10:48:09.659Z,2.87
2019-04-11T10:51:00.296Z,2.60
2019-04-11T10:53:29.516Z,3.27
2019-04-11T10:56:24.492Z,2.33
2019-04-11T10:58:55.603Z,2.57
2019-04-11T11:01:37.513Z,3.23
2019-04-11T11:04:15.817Z,2.70
2019-04-11T11:06:46.793Z,3.03
2019-04-11T11:09:36.008Z,2.63
2019-04-11T11:12:35.122Z,2.40
2019-04-11T11:15:27.515Z,2.50
2019-04-11T11:19:05.519Z,3.10
2019-04-11T11:21:02.037Z,3.00
2019-04-11T11:23:49.181Z,2.90
2019-04-11T11:26:22.691Z,2.90
2019-04-11T11:29:00.476Z,2.97
2019-04-11T11:31:40.783Z,2.50
2019-04-11T11:34:21.985Z,2.70
2019-04-11T11:37:22.768Z,2.67
2019-04-11T11:40:14.620Z,2.67
2019-04-11T11:42:58.843Z,2.63
2019-04-11T11:45:49.195Z,2.60
2019-04-11T11:48:35.546Z,2.90
2019-04-11T11:51:10.845Z,2.80
2019-04-11T11:53:53.958Z,2.87
2019-04-11T11:56:24.071Z,2.43
2019-04-11T11:59:11.286Z,2.77
2019-04-11T12:01:47.221Z,2.83
2019-04-11T12:04:44.313Z,2.40
2019-04-11T12:07:16.697Z,2.53
2019-04-11T12:10:17.291Z,2.80
2019-04-11T12:13:22.041Z,2.70
2019-04-11T12:15:57.368Z,3.10
2019-04-11T12:18:55.109Z,3.20
2019-04-11T12:21:28.491Z,2.47
2019-04-11T12:24:29.588Z,3.47
2019-04-11T12:27:24.667Z,2.53
2019-04-11T12:30:29.744Z,2.53
2019-04-11T12:33:06.143Z,2.40
2019-04-11T12:35:52.783Z,3.27
2019-04-11T12:38:41.163Z,2.00
2019-04-11T12:41:22.531Z,2.10
2019-04-11T12:44:30.283Z,2.17
2019-04-11T12:47:23.364Z,2.23
2019-04-11T12:50:14.575Z,1.73
2019-04-11T12:52:48.493Z,2.50
2019-04-11T12:55:22.949Z,2.60
2019-04-11T12:58:07.259Z,3.07
2019-04-11T13:00:55.632Z,2.57
2019-04-11T13:03:43.955Z,2.80
2019-04-11T13:06:19.828Z,2.50
2019-04-11T13:09:06.364Z,2.47
2019-04-11T13:11:38.202Z,2.00
2019-04-11T13:14:24.700Z,2.70
2019-04-11T13:16:55.849Z,2.67
2019-04-11T13:19:44.124Z,2.70
2019-04-11T13:22:18.463Z,2.87
2019-04-11T13:25:12.912Z,2.40
2019-04-11T13:27:48.628Z,2.43
2019-04-11T13:30:46.435Z,2.70
2019-04-11T13:33:21.610Z,3.03
2019-04-11T13:36:16.192Z,2.10
2019-04-11T13:38:47.284Z,2.03
2019-04-11T13:41:38.440Z,2.23
2019-04-11T13:44:13.860Z,2.60
2019-04-11T13:47:02.328Z,2.30
2019-04-11T13:49:40.188Z,2.43
2019-04-11T13:52:28.532Z,2.90
2019-04-11T13:55:11.562Z,2.70
2019-04-11T13:57:59.935Z,2.90
2019-04-11T14:00:57.456Z,3.00
2019-04-11T14:03:46.199Z,3.60
2019-04-11T14:06:24.137Z,2.80
2019-04-11T14:09:07.761Z,2.43
2019-04-11T14:11:41.869Z,2.50
2019-04-11T14:14:14.470Z,3.70
2019-04-11T14:17:11.984Z,3.50
2019-04-11T14:19:59.728Z,2.40
2019-04-11T14:22:36.057Z,2.47
2019-04-11T14:25:25.587Z,2.37
2019-04-11T14:27:57.192Z,2.17
2019-04-11T14:30:38.035Z,2.37
2019-04-11T14:33:07.314Z,2.43
2019-04-11T14:35:47.514Z,2.70
2019-04-11T14:38:18.029Z,2.23
2019-04-11T14:41:06.441Z,2.10
2019-04-11T14:43:45.930Z,2.37
2019-04-11T14:46:36.545Z,2.50
2019-04-11T14:49:10.137Z,2.50
2019-04-11T14:51:58.521Z,2.83
2019-04-11T14:54:36.867Z,3.13
2019-04-11T14:57:10.961Z,2.63
2019-04-11T15:00:02.680Z,2.47
2019-04-11T15:02:51.488Z,2.70
2019-04-11T15:05:38.760Z,3.10
2019-04-11T15:08:10.007Z,3.30
2019-04-11T15:10:54.261Z,3.17
2019-04-11T15:13:26.011Z,3.93
2019-04-11T15:16:26.547Z,3.20
2019-04-11T15:18:58.789Z,4.50
2019-04-11T15:21:53.441Z,3.13
2019-04-11T15:24:22.837Z,3.43
2019-04-11T15:27:20.366Z,2.93
2019-04-11T15:29:50.528Z,2.97
2019-04-11T15:32:48.271Z,3.70
2019-04-11T15:35:17.567Z,3.40
2019-04-11T15:38:24.250Z,3.23
2019-04-11T15:40:56.172Z,3.17
2019-04-11T15:43:44.495Z,2.77
2019-04-11T15:46:28.410Z,2.80
2019-04-11T15:49:35.333Z,2.67
2019-04-11T15:52:10.853Z,3.70
2019-04-11T15:55:07.851Z,2.90
2019-04-11T15:57:48.744Z,2.30
2019-04-11T16:00:37.070Z,2.37
2019-04-11T16:03:18.345Z,2.33
2019-04-11T16:06:05.898Z,2.83
2019-04-11T16:08:39.485Z,2.43
2019-04-11T16:11:36.394Z,2.50
2019-04-11T16:14:09.266Z,2.43
2019-04-11T16:17:13.937Z,2.50
2019-04-11T16:20:06.402Z,2.20
2019-04-11T16:22:48.634Z,2.50
2019-04-11T16:25:19.941Z,2.80
2019-04-11T16:28:11.389Z,2.35
2019-04-11T16:30:51.756Z,3.80
2019-04-11T16:33:40.137Z,2.53
2019-04-11T16:36:16.140Z,2.70
2019-04-11T16:39:10.622Z,2.73
2019-04-11T16:42:00.589Z,2.63
2019-04-11T16:45:01.160Z,3.13
2019-04-11T16:47:40.450Z,2.67
2019-04-11T16:50:10.003Z,2.90
2019-04-11T16:52:39.218Z,2.67
2019-04-11T16:55:10.077Z,3.10
2019-04-11T16:57:43.854Z,3.60
2019-04-11T17:00:11.862Z,3.00
2019-04-11T17:02:41.190Z,5.13
2019-04-11T17:05:10.387Z,3.40
2019-04-11T17:08:07.773Z,2.67
2019-04-11T17:10:57.508Z,2.73
2019-04-11T17:13:26.579Z,2.83
2019-04-11T17:15:59.793Z,2.80
2019-04-11T17:18:26.956Z,2.60
2019-04-11T17:20:56.264Z,2.43
2019-04-11T17:23:25.398Z,2.90
2019-04-11T17:25:54.526Z,2.87
2019-04-11T17:28:23.810Z,2.90
2019-04-11T17:30:55.697Z,2.77
2019-04-11T17:33:27.780Z,2.50
2019-04-11T17:35:54.863Z,2.30
2019-04-11T17:38:24.040Z,3.10
2019-04-11T17:40:53.196Z,3.00
2019-04-11T17:43:22.355Z,2.67
2019-04-11T17:45:56.993Z,2.80
2019-04-11T17:48:23.876Z,2.50
2019-04-11T17:50:53.410Z,2.90
2019-04-11T17:53:24.750Z,2.93
2019-04-11T17:55:54.217Z,2.60
2019-04-11T17:58:26.817Z,2.90
2019-04-11T18:01:00.195Z,3.10
2019-04-11T18:03:28.546Z,3.10
2019-04-11T18:05:57.792Z,3.10
2019-04-11T18:08:27.095Z,3.30
2019-04-11T18:10:56.692Z,3.20
2019-04-11T18:13:30.591Z,3.60
2019-04-11T18:16:00.756Z,3.87
2019-04-11T18:18:28.221Z,3.60
2019-04-11T18:20:57.471Z,3.33
2019-04-11T18:23:26.711Z,3.00
2019-04-11T18:25:56.114Z,3.40
2019-04-11T18:28:28.149Z,3.60
2019-04-11T18:30:57.553Z,3.60
2019-04-11T18:33:26.804Z,3.53
2019-04-11T18:35:56.153Z,3.20
2019-04-11T18:38:25.481Z,3.97
2019-04-11T18:40:54.693Z,3.40
2019-04-11T18:43:25.562Z,3.20
2019-04-11T18:45:55.313Z,3.43
2019-04-11T18:48:24.753Z,3.33
2019-04-11T18:50:54.160Z,3.30
2019-04-11T18:53:23.393Z,3.03
2019-04-11T18:55:53.973Z,3.40
2019-04-11T18:58:23.333Z,3.50
2019-04-11T19:00:52.904Z,3.37
2019-04-11T19:03:22.320Z,3.50
2019-04-11T19:05:51.894Z,2.80
2019-04-11T19:08:23.522Z,3.67
2019-04-11T19:10:53.045Z,3.70
2019-04-11T19:13:23.092Z,3.67
2019-04-11T19:15:52.440Z,3.60
2019-04-11T19:18:24.812Z,4.70
2019-04-11T19:20:54.493Z,3.73
2019-04-11T19:23:23.729Z,3.80
2019-04-11T19:25:52.871Z,3.60
2019-04-11T19:28:24.871Z,3.87
2019-04-11T19:30:53.976Z,3.30
2019-04-11T19:33:23.868Z,4.10
2019-04-11T19:35:53.010Z,3.80
2019-04-11T19:38:26.940Z,3.80
2019-04-11T19:40:56.079Z,3.97
2019-04-11T19:43:25.166Z,3.70
2019-04-11T19:45:54.260Z,4.00
2019-04-11T19:48:25.198Z,3.50
2019-04-11T19:50:54.200Z,3.80
2019-04-11T19:53:23.280Z,6.17
2019-04-11T19:55:59.528Z,3.77
2019-04-11T19:58:29.304Z,4.20
2019-04-11T20:00:58.428Z,3.90
2019-04-11T20:03:27.595Z,3.57
2019-04-11T20:05:56.693Z,3.90
2019-04-11T20:08:25.805Z,4.07
2019-04-11T20:10:54.979Z,3.60
2019-04-11T20:13:24.081Z,3.53
2019-04-11T20:15:53.201Z,3.60
2019-04-11T20:18:23.214Z,3.90
2019-04-11T20:20:52.518Z,3.70
2019-04-11T20:23:21.616Z,3.63
2019-04-11T20:25:50.705Z,4.00
2019-04-11T20:28:20.840Z,4.07
2019-04-11T20:30:50.090Z,4.00
2019-04-11T20:33:26.899Z,3.70
2019-04-11T20:35:49.987Z,4.57
2019-04-11T20:38:19.170Z,4.10
2019-04-11T20:40:52.119Z,4.23
2019-04-11T20:43:19.168Z,4.23
2019-04-11T20:45:48.276Z,3.83
2019-04-11T20:48:17.388Z,3.60
2019-04-11T20:50:46.501Z,4.43
2019-04-11T20:53:15.597Z,4.10
2019-04-11T20:55:44.720Z,3.90
2019-04-11T20:58:13.825Z,4.07
2019-04-11T21:00:50.308Z,3.67
2019-04-11T21:03:14.044Z,4.00
2019-04-11T21:05:43.144Z,3.80
2019-04-11T21:08:12.242Z,3.80
2019-04-11T21:10:41.349Z,3.90
2019-04-11T21:13:10.432Z,3.80
2019-04-11T21:15:39.580Z,3.40
2019-04-11T21:18:14.480Z,3.47
2019-04-11T21:20:43.579Z,3.70
2019-04-11T21:23:23.805Z,3.47
2019-04-11T21:25:43.492Z,4.63
2019-04-11T21:28:12.607Z,3.73
2019-04-11T21:30:41.729Z,3.90
2019-04-11T21:33:10.835Z,3.80
2019-04-11T21:35:39.948Z,3.77
2019-04-11T21:38:09.040Z,3.60
2019-04-11T21:40:38.479Z,3.40
2019-04-11T21:43:07.579Z,3.53
2019-04-11T21:45:36.677Z,4.07
2019-04-11T21:48:06.848Z,3.57
2019-04-11T21:50:40.276Z,3.90
2019-04-11T21:53:07.016Z,3.70
2019-04-11T21:55:36.108Z,3.60
2019-04-11T21:58:05.233Z,3.53
2019-04-11T22:00:40.492Z,3.17
2019-04-11T22:03:11.388Z,3.70
2019-04-11T22:05:40.483Z,3.57
2019-04-11T22:08:09.597Z,3.37
2019-04-11T22:10:40.401Z,3.63
2019-04-11T22:13:10.103Z,3.60
2019-04-11T22:15:42.463Z,3.77
2019-04-11T22:18:15.846Z,3.97
2019-04-11T22:20:41.741Z,4.60
2019-04-11T22:23:10.848Z,4.17
2019-04-11T22:25:39.941Z,3.60
2019-04-11T22:28:09.047Z,4.20
2019-04-11T22:30:38.418Z,4.43
2019-04-11T22:33:42.078Z,3.53
2019-04-11T22:36:11.256Z,3.77
2019-04-11T22:38:40.345Z,4.10
2019-04-11T22:41:09.462Z,4.20
2019-04-11T22:43:38.698Z,4.13
2019-04-11T22:46:08.551Z,3.90
2019-04-11T22:48:39.062Z,3.83
2019-04-11T22:51:11.219Z,3.90
2019-04-11T22:53:43.189Z,4.13
2019-04-11T22:56:12.402Z,3.90
2019-04-11T22:58:43.511Z,4.00
2019-04-11T23:01:14.047Z,4.50
2019-04-11T23:03:56.382Z,4.57
2019-04-11T23:06:25.480Z,4.03
2019-04-11T23:08:54.584Z,4.20
2019-04-11T23:11:23.750Z,4.20
2019-04-11T23:13:52.839Z,4.40
2019-04-11T23:16:22.251Z,4.27
2019-04-11T23:18:51.344Z,4.13
2019-04-11T23:21:20.455Z,4.40
2019-04-11T23:23:49.536Z,4.73
2019-04-11T23:26:18.652Z,4.40
2019-04-11T23:28:48.032Z,4.40
2019-04-11T23:31:19.776Z,4.73
2019-04-11T23:33:51.685Z,4.37
2019-04-11T23:36:21.327Z,5.07
2019-04-11T23:38:52.680Z,4.20
2019-04-11T23:41:21.921Z,4.87
2019-04-11T23:43:51.048Z,4.30
2019-04-11T23:46:21.436Z,4.60
2019-04-11T23:48:54.547Z,4.80
2019-04-11T23:51:25.473Z,4.33
2019-04-11T23:53:53.268Z,4.60
2019-04-11T23:56:22.355Z,4.80
2019-04-11T23:58:51.451Z,5.07
